Get Your Rear in Gear 5K Run/Walk 2012

Overall Finish List

June 30, 2012


Results By Race Management Systems, Inc.

5K Run

Place Name City Bib No Age Gender Age Group Total Time Pace
1 James Derick Big Flats NY 169 46 M 1 40-49 16:49 5:25/M
2 Austin Holbrook Corning NY 176 18 M 1 11-19 18:07 5:51/M
3 Tyler Rodbaugh Horseheads NY 184 18 M 2 11-19 18:24 5:56/M
4 Derek Johnson Horseheads NY 177 17 M 3 11-19 18:30 5:58/M
5 Jason Husted Elmira NY 67 30 M 1 30-39 18:32 5:59/M
6 Nicholas Sweet Sayre PA 58 15 M 4 11-19 18:37 6:00/M
7 Jack Cleland Corning NY 210 55 M 1 50-59 18:44 6:03/M
8 Daniel Cleary Horseheads NY 132 17 M 5 11-19 18:57 6:07/M
9 Rick Gooshaw Elmira Heights NY 38 50 M 2 50-59 19:16 6:13/M
10 Keith Congdon Elmira NY 134 31 M 2 30-39 19:40 6:21/M
11 Arnie Carbaugh Horseheads NY 13 22 M 1 20-29 19:53 6:25/M
12 Adam Gibson Horseheads NY 168 38 M 3 30-39 19:57 6:26/M
13 Thomas Cleveland Beaver Dams NY 17 21 M 2 20-29 20:36 6:39/M
14 Ashley Porter Greenwood NY 146 22 F 1 20-29 20:46 6:42/M
15 Kris Thorne Elmira NY 195 30 M 4 30-39 20:48 6:43/M
16 Melissa Woodward Elmira NY 167 27 F 1 20-29 20:51 6:44/M
17 Shuwei Chen Horseheads NY 172 16 M 6 11-19 20:54 6:45/M
18 Randy Wilcox Corning NY 128 39 M 5 30-39 21:13 6:51/M
19 Brian Jones Corning NY 178 35 M 6 30-39 21:40 6:59/M
20 Caitlin Potter Lincolnton NC 98 16 F 1 11-19 21:46 7:01/M
21 James Quagliana Tilton NH 188 56 M 3 50-59 21:54 7:04/M
22 Alexandre Lovallo Ithaca NY 82 28 M 3 20-29 22:01 7:06/M
23 Bill MacNamara Avoca NY 143 49 M 1 40-49 22:08 7:08/M
24 Karen McCabe Lodi NY 59 46 F 1 40-49 22:12 7:10/M
25 Bernard Gridley Oneonta NY 43 28 M 4 20-29 22:32 7:16/M
26 Bill Congdon Horseheads NY 135 60 M 1 60-69 22:37 7:18/M
27 Andrew Dininny Corning NY 26 26 M 5 20-29 22:44 7:20/M
28 Jeffrey Holbrook Corning NY 175 49 M 2 40-49 22:55 7:24/M
29 Matt Griffin Elmira NY 46 36 M 7 30-39 22:58 7:25/M
30 Donald Yearick Corning NY 186 50 M 4 50-59 22:59 7:25/M
31 Nicole Griffin 48 32 F 1 30-39 23:08 7:28/M
32 Katrina Dewitt Trumansburg NY 137 26 F 2 20-29 23:10 7:28/M
33 Chris Paul Gillett PA 183 31 M 8 30-39 23:29 7:35/M
34 Harold Watkins Horseheads NY 206 36 M 9 30-39 23:48 7:41/M
35 Matthew Gridley Wellsville NY 45 25 M 6 20-29 23:50 7:41/M
36 Jason Metzger Elmira NY 156 39 M 10 30-39 23:58 7:44/M
37 Lisa Quagliana Horseheads NY 147 26 F 3 20-29 24:00 7:45/M
38 Andrea Robinson Horseheads NY 207 35 F 2 30-39 24:04 7:46/M
39 Michael Bulkley Elmira NY 12 30 M 11 30-39 24:07 7:47/M
40 Jay Cummings Johnson City NY 20 48 M 3 40-49 24:10 7:48/M
41 Matt Stevens Horseheads NY 115 45 M 4 40-49 24:21 7:51/M
42 Tim Blackwell Corning NY 9 45 M 5 40-49 24:25 7:53/M
43 Mario Scarselletta Horseheads NY 105 47 M 6 40-49 24:27 7:53/M
44 David Potter Lincolnton NC 99 51 M 5 50-59 24:30 7:54/M
45 Neil Hanlon Horseheads NY 54 22 M 7 20-29 24:31 7:55/M
46 Matthew Cleveland Elmira NY 15 12 M 7 11-19 24:39 7:57/M
47 Lynn Hinman Columbia Cross Roads PA 157 33 F 3 30-39 24:46 7:59/M
48 Curtis Olinger Bruceton Mills 93 40 M 7 40-49 24:48 8:00/M
49 Steve Lyon Woodhull NY 192 41 M 8 40-49 24:51 8:01/M
50 Nancy Shepard Horseheads NY 111 57 F 1 50-59 25:31 8:14/M
51 Jeffrey Harris Beaver Dams NY 55 14 M 8 11-19 25:42 8:17/M
52 Mary Jo Maranghi Waverly NY 145 46 F 2 40-49 25:48 8:19/M
53 Joel Dundas Corning NY 27 36 M 12 30-39 25:58 8:23/M
54 Rebecca Guinnip Addison NY 49 40 F 3 40-49 26:13 8:27/M
55 John Well Avoca NY 190 63 M 2 60-69 26:20 8:30/M
56 Rodger Keenan Painted Post NY 196 52 M 6 50-59 26:22 8:30/M
57 Nicholas Cleveland Elmira NY 16 12 M 9 11-19 26:24 8:31/M
58 Joseph Cleary Horseheads NY 133 45 M 9 40-49 26:26 8:32/M
59 Jeffrey Osmond Sayre PA 155 45 M 10 40-49 26:27 8:32/M
60 Joe Goodman Lindley NY 36 33 M 13 30-39 26:36 8:35/M
61 Melissa Williams Wellsburg NY 130 38 F 4 30-39 26:38 8:35/M
62 Julie Koski Corning NY 173 51 F 2 50-59 26:50 8:39/M
63 Heather D'Alleva Burdett NY 182 35 F 5 30-39 26:56 8:41/M
64 Nikki Menser Dryden NY 204 29 F 4 20-29 27:04 8:44/M
65 Bill Stull Painted Post NY 117 37 M 14 30-39 27:10 8:46/M
66 Jason Shelhamer Elmira NY 109 40 M 11 40-49 27:12 8:46/M
67 Darrin Hall Horseheads NY 52 40 M 12 40-49 27:14 8:47/M
68 Joelle Paulisczak Odessa NY 95 34 F 6 30-39 27:19 8:49/M
69 Mary Beth Wayne Horseheads NY 153 50 F 3 50-59 27:23 8:50/M
70 Alton C Derick Avoca NY 24 71 M 1 70-99 27:24 8:50/M
71 Eric Gergel Elmira NY 202 25 M 8 20-29 27:25 8:51/M
72 Kimberly Gronski Corning NY 138 19 F 2 11-19 27:46 8:57/M
73 Abbie Shepard Horseheads NY 110 19 F 3 11-19 27:49 8:58/M
74 Melissa Henry Elmira NY 61 23 F 5 20-29 27:52 8:59/M
75 Brian Henry Elmira NY 60 53 M 7 50-59 28:11 9:05/M
76 Alicia Johnson Pine City NY 68 29 F 6 20-29 28:36 9:14/M
77 Brandon Theetge Cayuta NY 187 26 M 9 20-29 28:38 9:14/M
78 James Heft Monroeton PA 56 33 M 15 30-39 28:39 9:15/M
79 Peggy Lubberts Woodhull NY 164 42 F 4 40-49 28:43 9:16/M
80 Michelle Sadler Breesport NY 103 24 F 7 20-29 28:45 9:16/M
81 Jeremy Ernst Horseheads NY 30 11 M 10 11-19 28:48 9:17/M
82 Brooke Levesque Bradford NY 142 12 F 4 11-19 28:51 9:18/M
83 Linda Gigliello Corning NY 158 43 F 5 40-49 28:52 9:19/M
84 Danielle Kaffke Horseheads NY 72 20 F 8 20-29 29:10 9:25/M
85 Mary Kate Valentine Ithaca NY 121 33 F 7 30-39 29:12 9:25/M
86 Helen Crea Watkins Glen NY 199 49 F 6 40-49 29:30 9:31/M
87 Lindsay Southard Glen Burnie MD 114 32 F 8 30-39 29:37 9:33/M
88 Jacki Williams Wellsburg NY 151 14 F 5 11-19 29:46 9:36/M
89 Michael Meagher Elmira NY 189 50 M 8 50-59 29:47 9:36/M
90 Allison Rich Elmira NY 197 24 F 9 20-29 29:51 9:38/M
91 Jenni Williams Wellsburg NY 152 17 F 6 11-19 29:55 9:39/M
92 Chris Schweiger Corning NY 198 26 M 10 20-29 30:00 9:41/M
93 Miranda Templar Beaver Dam NY 148 31 F 9 30-39 30:10 9:44/M
94 Jason Templar Beaver Dam NY 211 32 M 16 30-39 30:13 9:45/M
95 Kristie Kujawski Horseheads NY 159 25 F 10 20-29 30:14 9:45/M
96 Gale Savino Horseheads NY 200 55 F 4 50-59 30:24 9:48/M
97 Satish Chaparala Painted Post NY 14 33 M 17 30-39 30:27 9:49/M
98 Teresa Haight Addison NY 51 48 F 7 40-49 30:30 9:50/M
99 Mary Polidori Essex Junction VT 97 28 F 11 20-29 30:33 9:51/M
100 Adrienne Ruzic Webster NY 185 33 F 10 30-39 30:43 9:55/M
 
Place Name City Bib No Age Gender Age Group Total Time Pace
101 Kim Leszyk Corning NY 81 47 F 8 40-49 30:46 9:55/M
102 Jesse Johnson Pine City NY 70 31 M 18 30-39 30:53 9:58/M
103 Daniel Cooper Elmira NY 136 54 M 9 50-59 31:04 10:01/M
104 Micki Mathews Elmira NY 83 34 F 11 30-39 31:10 10:03/M
105 Allison Shearer Horseheads NY 107 9 F 1 0-10 31:16 10:05/M
106 Megan Hall Horseheads NY 53 29 F 12 20-29 31:22 10:07/M
107 Adrian Jung Horseheads NY 71 22 F 13 20-29 31:27 10:09/M
108 Anna Holbrook Corning NY 174 17 F 7 11-19 31:27 10:09/M
109 Colette Kelly Painted Post NY 180 39 F 12 30-39 31:36 10:12/M
110 Darcie Hughes Corning NY 179 39 F 13 30-39 31:43 10:14/M
111 Matthew Galvin Corning NY 35 51 M 10 50-59 31:46 10:15/M
112 Dave Kunath Horseheads NY 78 35 M 19 30-39 31:47 10:15/M
113 Sonja Kunath Horseheads NY 79 41 F 9 40-49 31:54 10:17/M
114 Penny MacNamara Avoca NY 144 47 F 10 40-49 31:55 10:18/M
115 Rebekah Stevens Horseheads NY 116 35 F 14 30-39 31:56 10:18/M
116 Jeff Hilliard Breesport NY 64 40 M 13 40-49 32:00 10:19/M
117 Mary Mullen Elmira NY 91 24 F 14 20-29 32:02 10:20/M
118 Anne Audinwood Elmira NY 3 23 F 15 20-29 32:03 10:20/M
119 Carter Greeno Elmira NY 40 8 M 1 0-10 32:05 10:21/M
120 Brenda Kipferl Lawrenceville PA 77 47 F 11 40-49 32:06 10:21/M
121 Barry Gridley Wellsville NY 42 74 M 2 70-99 32:09 10:22/M
122 Jason Vanskiver Savona NY 123 37 M 20 30-39 32:20 10:26/M
123 Tina Hartzell Kannapolis NC 191 34 F 15 30-39 32:21 10:26/M
124 Michelle Dundas Corning NY 28 34 F 16 30-39 32:35 10:31/M
125 Teresa Matterazzo Horseheads NY 194 23 F 16 20-29 32:42 10:33/M
126 Wendy Cummings Johnson City NY 22 42 F 12 40-49 32:44 10:34/M
127 Richard Collins Painted Post NY 18 46 M 14 40-49 32:45 10:34/M
128 Barbara Matterazzo Horseheads NY 193 56 F 5 50-59 32:46 10:34/M
129 Sherry Deats Menlo Park CA 23 53 F 6 50-59 32:47 10:35/M
130 Heather Mac Farlane Watkins Glen NY 181 37 F 17 30-39 32:49 10:35/M
131 Laurelyn Simons Corning NY 112 34 F 18 30-39 32:50 10:35/M
132 Catherine Bockheim Wellsboro PA 10 52 F 7 50-59 32:51 10:36/M
133 Johanna Theetge Cayuta NY 149 45 F 13 40-49 33:07 10:41/M
134 Kim Shearer Horseheads NY 108 38 F 19 30-39 33:10 10:42/M
135 Candice Labate Elmira NY 141 30 F 20 30-39 33:16 10:44/M
136 Angela Nichiporcek Campbell NY 201 32 F 21 30-39 33:24 10:46/M
137 Jody Beaudoin Beaver Dams NY 7 45 F 14 40-49 33:26 10:47/M
138 Dan Koski Newfield NY 166 56 M 11 50-59 33:46 10:54/M
139 Rachel Haar Cayuta NY 50 23 F 17 20-29 34:00 10:58/M
140 Sara Billings Barton NY 8 32 F 22 30-39 34:03 10:59/M
141 Alison Coyle Sayre PA 19 41 F 15 40-49 34:10 11:01/M
142 Rachel Santiago Elmira NY 104 33 F 23 30-39 34:12 11:02/M
143 Victoria Wilcox Horseheads NY 129 21 F 18 20-29 34:13 11:02/M
144 Brenda Andrus Horseheads NY 205 34 F 24 30-39 34:26 11:06/M
145 Ann Milliken Elmira NY 87 19 F 8 11-19 34:28 11:07/M
146 Mary Milliken Elmira NY 89 23 F 19 20-29 34:29 11:07/M
147 Jamie Heft Monroeton PA 57 30 F 25 30-39 34:33 11:09/M
148 Julie Olinger Bruceton Mills WV 94 39 F 26 30-39 34:36 11:10/M
149 Steve Smith Rochester NY 113 30 F 27 30-39 34:47 11:13/M
150 Chelsea Gridley Wellsville NY 44 27 F 20 20-29 34:49 11:14/M
151 Amber Hepfer Lawrenceville PA 62 37 F 28 30-39 34:50 11:14/M
152 Mindy King Horseheads NY 76 32 F 29 30-39 34:53 11:15/M
153 Denise Trondsen Horseheads NY 120 39 F 30 30-39 35:08 11:20/M
154 Joel Vanskiver Savona NY 124 9 M 2 0-10 35:10 11:21/M
155 Molly McGinley-Hilliard Breesport NY 84 38 F 31 30-39 35:11 11:21/M
156 Terri Allington Campbell NY 2 33 F 32 30-39 35:12 11:21/M
157 Kimberly Greeno Elmira NY 41 34 F 33 30-39 35:23 11:25/M
158 Christine Rankin Harleysville PA 100 38 F 34 30-39 35:29 11:27/M
159 Annette Avery Millerton PA 4 43 F 16 40-49 35:31 11:27/M
160 Darlene Harris Hollywood FL 140 52 F 8 50-59 35:43 11:31/M
161 Jean A. Derick Avoca NY 25 69 F 1 60-69 36:01 11:37/M
162 Donald Fleming Horseheads NY 170 48 M 15 40-49 36:05 11:38/M
163 Carissa Fleming Horseheads NY 171 22 F 21 20-29 36:17 11:42/M
164 Renee Allington Horseheads NY 131 29 F 22 20-29 36:26 11:45/M
165 Anglea Willis Horseheads NY 154 21 F 23 20-29 36:36 11:48/M
166 Baylee Greeno Elmira NY 39 10 F 2 0-10 37:06 11:58/M
167 Lynda Thomas Elmira NY 118 40 F 17 40-49 37:18 12:02/M
168 Cheryl Miller Pine City NY 86 48 F 18 40-49 37:27 12:05/M
169 Lorrie Fitzgibbons Freeville NY 208 51 F 9 50-59 37:28 12:05/M
170 Mary Bloomfield-Brown Dryden NY 203 47 F 19 40-49 37:32 12:06/M
171 Barbara Adams Elmira NY 1 40 F 20 40-49 38:00 12:15/M
172 Meggin Griffin Elmira NY 47 39 F 35 30-39 39:02 12:35/M
173 John Harris Hollywood FL 139 45 M 16 40-49 39:04 12:36/M
174 Jeannette Meck Pine City NY 85 57 F 10 50-59 39:07 12:37/M
175 Melanie Moon Painted Post NY 90 34 F 36 30-39 40:11 12:58/M
176 Leah Fry Greenwood NY 165 22 F 24 20-29 41:53 13:31/M
177 Jamie Madison Horseheads NY 163 25 F 25 20-29 59:13 19:06/M
178 Trisha Freeman Horseheads NY 5 26 F 26 20-29 59:14 19:06/M